CW6020 Teulada ES current weather conditions

sailwx.info

Wind from 030 at 3 knots gusting 6

Air temperature 25.6° C
Dewpoint 22.8° C

Last reported at 2014-Aug-01 21:50 UTC.
Time now 2014-Aug-01 22:32 UTC

Location: N 38°44' E 000°06'.
View on Google Maps.

See reports from other nearby stations

  
Tides and Currents Weather Stations Pressure Air Temp Water Temp Dewpoint Dewpoint Depression Visibility Wind Speed Wind Dir Waves Ship Positions
date/time (UTC)wind fromknots sea level pressurealtimeterstation pressurevisibilityair tempwater tempwave heightnotes
2014-Aug-01 21:50 030 3 gusting 6 25.6
2014-Aug-01 21:40 150 3 gusting 9 25.6
2014-Aug-01 21:20 120 24.4
2014-Aug-01 21:10 135 24.4
2014-Aug-01 20:30 240 24.4
2014-Aug-01 20:10 210 1 gusting 3 24.4
2014-Aug-01 19:30 165 2 gusting 4 25.0
2014-Aug-01 19:20 165 3 gusting 5 25.0
2014-Aug-01 19:10 180 3 gusting 5 25.0
2014-Aug-01 19:00 180 3 gusting 6 25.6
2014-Aug-01 18:50 195 5 gusting 7 25.6
2014-Aug-01 18:30 165 5 gusting 8 26.1
2014-Aug-01 18:20 180 8 gusting 10 26.7
2014-Aug-01 17:50 165 7 gusting 11 28.3
2014-Aug-01 17:20 165 8 gusting 11 29.4
2014-Aug-01 16:20 180 9 gusting 13 30.0
2014-Aug-01 16:10 180 12 gusting 14 30.6
2014-Aug-01 16:00 180 13 gusting 15 30.6
2014-Aug-01 15:50 135 11 gusting 14 30.6
2014-Aug-01 15:40 120 9 gusting 13 30.6
2014-Aug-01 15:30 135 7 gusting 13 30.6
2014-Aug-01 15:20 150 7 gusting 11 31.1
2014-Aug-01 15:10 172 6 gusting 8 31.1
2014-Aug-01 15:00 180 8 gusting 13 31.1
2014-Aug-01 14:40 180 7 gusting 9 31.7
2014-Aug-01 14:30 165 7 gusting 10 32.2
2014-Aug-01 14:20 210 4 gusting 6 32.2
2014-Aug-01 13:50 165 5 gusting 6 32.2
2014-Aug-01 13:30 172 5 gusting 8 32.2
2014-Aug-01 12:20 150 3 gusting 5 33.3
2014-Aug-01 11:50 180 3 gusting 6 32.8
2014-Aug-01 11:10 135 5 gusting 6 32.2
2014-Aug-01 10:50 142 3 gusting 6 31.7
2014-Aug-01 10:40 180 4 gusting 6 31.7
2014-Aug-01 10:30 157 5 gusting 7 31.7
2014-Aug-01 10:00 135 3 gusting 6 31.1
2014-Aug-01 09:40 180 2 gusting 3 31.1
2014-Aug-01 09:30 165 1 gusting 3 30.6
2014-Aug-01 09:00 120 3 gusting 4 30.0
2014-Aug-01 08:10 165 3 gusting 4 27.8
2014-Aug-01 08:00 165 4 gusting 6 27.2
2014-Aug-01 07:40 195 3 gusting 6 26.7
2014-Aug-01 07:10 180 6 gusting 7 23.9
2014-Aug-01 06:40 210 0 gusting 1 22.8
2014-Aug-01 06:30 195 21.7
2014-Aug-01 06:20 180 21.7
2014-Aug-01 06:10 120 21.1
2014-Aug-01 06:00 090 20.6
2014-Aug-01 05:50 195 20.6
2014-Aug-01 05:40 210 20.6
2014-Aug-01 05:30 105 20.6
2014-Aug-01 05:20 195 0 gusting 1 20.6
2014-Aug-01 05:00 120 20.6
2014-Aug-01 04:30 120 20.6
2014-Aug-01 04:20 120 20.6
2014-Aug-01 04:00 225 21.1
2014-Aug-01 03:50 165 0 gusting 1 20.6
2014-Aug-01 03:30 21.1
2014-Aug-01 03:20 120 21.1
2014-Aug-01 03:10 120 0 gusting 1 21.1
2014-Aug-01 03:00 105 21.1
2014-Aug-01 02:50 135 1 gusting 2 21.1
2014-Aug-01 02:40 135 21.1
2014-Aug-01 02:30 135 21.1
2014-Aug-01 02:20 165 21.7
2014-Aug-01 02:10 180 21.7
2014-Aug-01 01:40 045 22.2
2014-Aug-01 01:30 315 22.2
2014-Aug-01 01:20 240 22.2
2014-Aug-01 01:10 150 22.2
2014-Aug-01 01:00 090 22.8
2014-Aug-01 00:50 330 22.8
2014-Aug-01 00:40 300 22.8
2014-Aug-01 00:30 23.3
2014-Aug-01 00:20 015 23.3
2014-Aug-01 00:00 045 23.3
2014-Jul-31 23:50 105 23.3
2014-Jul-31 23:30 195 23.9
2014-Jul-31 23:20 195 1 gusting 2 23.9
2014-Jul-31 23:10 180 0 gusting 1 23.9
2014-Jul-31 22:00 180 24.4
2014-Jul-31 21:50 210 24.4
2014-Jul-31 21:30 180 2 gusting 3 24.4
2014-Jul-31 21:20 210 24.4
2014-Jul-31 21:00 135 0 gusting 1 25.0
2014-Jul-31 20:50 165 7 gusting 9 25.0
2014-Jul-31 20:10 150 4 gusting 6 25.6
2014-Jul-31 19:40 165 6 gusting 8 25.6
2014-Jul-31 19:30 120 6 gusting 9 25.6
2014-Jul-31 19:00 165 3 gusting 5 26.1
2014-Jul-31 18:50 180 2 gusting 4 26.7
2014-Jul-31 18:40 165 1 gusting 3 26.7
2014-Jul-31 18:10 135 3 gusting 6 27.8
2014-Jul-31 18:00 180 8 gusting 11 28.3
2014-Jul-31 17:50 180 3 gusting 6 28.9
2014-Jul-31 17:30 225 4 gusting 6 29.4
2014-Jul-31 16:00 180 9 gusting 13 30.0
2014-Jul-31 14:30 165 8 gusting 12 30.0
2014-Jul-31 14:20 180 13 gusting 18 30.6
2014-Jul-31 14:10 195 8 gusting 14 30.6
2014-Jul-31 14:00 180 9 gusting 12 30.6
2014-Jul-31 13:50 180 13 gusting 18 30.0
2014-Jul-31 13:20 180 9 gusting 14 30.6
2014-Jul-31 13:10 150 8 gusting 13 30.6
2014-Jul-31 12:50 165 12 gusting 15 30.6
2014-Jul-31 12:20 180 12 gusting 18 30.6
2014-Jul-31 12:00 210 13 gusting 17 31.1
2014-Jul-31 11:40 180 8 gusting 10 30.6
2014-Jul-31 11:30 165 9 gusting 13 31.1
2014-Jul-31 11:10 150 8 gusting 13 31.1
2014-Jul-31 11:00 120 7 gusting 11 31.7
2014-Jul-31 10:40 180 9 gusting 13 31.1
2014-Jul-31 10:30 150 9 gusting 13 30.6
2014-Jul-31 10:20 217 10 gusting 15 30.6
2014-Jul-31 10:00 165 9 gusting 17 30.6
2014-Jul-31 09:50 165 8 gusting 14 30.6
2014-Jul-31 09:10 165 5 gusting 8 30.0
2014-Jul-31 08:30 247 6 gusting 13 29.4
2014-Jul-31 08:20 195 10 gusting 13 29.4
2014-Jul-31 08:00 195 6 gusting 9 28.3
2014-Jul-31 07:40 180 6 gusting 9 27.8
2014-Jul-31 07:30 180 3 gusting 4 26.7
2014-Jul-31 06:00 255 21.1
2014-Jul-31 05:50 315 20.6
2014-Jul-31 04:50 075 21.1
2014-Jul-31 04:40 045 21.1
2014-Jul-31 04:30 060 20.6
2014-Jul-31 04:20 045 20.6
2014-Jul-31 04:00 135 1 gusting 2 20.6
2014-Jul-31 03:40 120 21.1
2014-Jul-31 03:30 225 21.1
2014-Jul-31 03:20 195 21.1
2014-Jul-31 03:10 135 21.1
2014-Jul-31 03:01 120 21.7
2014-Jul-31 02:40 165 21.7
2014-Jul-31 02:30 090 0 gusting 1 21.7
2014-Jul-31 02:20 090 21.7
2014-Jul-31 02:10 135 21.7
2014-Jul-31 01:40 225 21.7
2014-Jul-31 01:20 225 21.7
2014-Jul-31 01:00 285 1 gusting 1 22.2
2014-Jul-31 00:30 150 22.2
2014-Jul-31 00:20 060 22.8
2014-Jul-30 23:50 315 22.8
2014-Jul-30 23:40 22.8
2014-Jul-30 23:30 330 22.8
2014-Jul-30 23:20 270 22.8
2014-Jul-30 23:00 22.8
2014-Jul-30 22:50 030 22.8
2014-Jul-30 22:20 165 1 gusting 3 23.3
2014-Jul-30 22:00 180 0 gusting 1 23.3